ADDS METAR Data

Data at: 0747 UTC 24 Oct 2017

METAR for:KHTO (East Hampton Arpt, NY, US)
Text:KHTO 240735Z AUTO 15011G15KT 10SM SCT022 OVC036 19/17 A3001 RMK AO2 T01890173
Temperature: 18.9°C ( 66°F)
Dewpoint: 17.3°C ( 63°F) [RH = 90%]
Pressure (altimeter):30.01 inches Hg (1016.3 mb)
Winds:from the SSE (150 degrees) at 13 MPH (11 knots; 5.7 m/s) gusting to 17 MPH (15 knots; 7.7 m/s)
Visibility:10 or more sm (16+ km)
Ceiling:3600 feet AGL
Clouds: scattered clouds at 2200 feet AGL, overcast cloud deck at 3600 feet AGL
QC Flag:automated observation with no human augmentation